Time;durP1;ratioP1;P1;durP2;ratioP2;P2;SDS_P1;SDS_P2;PMS_P1;PMS_P2;Temp;Humidity;BMP_temperature;BMP_pressure;BME280_temperature;BME280_humidity;BME280_pressure;Samples;Min_cycle;Max_cycle;Signal;HPM_P1;HPM_P2
2024/01/04 00:02:17;;;;;;;1.02;0.57;;;21.30;52.50;;;;;;5035627;28;20652;-67
2024/01/04 00:04:42;;;;;;;1.92;0.65;;;21.30;52.50;;;;;;5039449;28;20025;-68
2024/01/04 00:07:08;;;;;;;1.10;0.50;;;21.30;52.50;;;;;;5039235;28;20478;-68
2024/01/04 00:09:33;;;;;;;1.33;0.63;;;21.30;52.40;;;;;;5038625;28;20043;-68
2024/01/04 00:11:59;;;;;;;1.10;0.50;;;21.30;52.30;;;;;;5038573;28;20456;-68
2024/01/04 00:14:25;;;;;;;1.10;0.57;;;21.30;52.30;;;;;;5038591;28;20071;-68
2024/01/04 00:16:50;;;;;;;1.13;0.63;;;21.20;52.20;;;;;;5036093;28;20053;-68
2024/01/04 00:19:16;;;;;;;1.42;0.63;;;21.20;52.20;;;;;;5037550;28;20029;-69
2024/01/04 00:21:42;;;;;;;1.38;0.90;;;21.20;52.20;;;;;;5038305;28;20473;-68
2024/01/04 00:24:07;;;;;;;1.30;0.60;;;21.20;52.10;;;;;;5038637;28;20022;-68
2024/01/04 00:26:33;;;;;;;1.25;0.70;;;21.20;52.10;;;;;;5037952;28;20037;-68
2024/01/04 00:28:59;;;;;;;1.02;0.70;;;21.20;52.10;;;;;;5037528;28;20477;-68
2024/01/04 00:31:25;;;;;;;1.15;0.60;;;21.10;52.00;;;;;;5035656;28;20017;-68
2024/01/04 00:33:51;;;;;;;0.95;0.57;;;21.10;51.90;;;;;;5039530;28;20083;-68
2024/01/04 00:36:17;;;;;;;1.25;0.73;;;21.20;52.00;;;;;;5050873;28;20099;-68
2024/01/04 00:38:43;;;;;;;1.00;0.57;;;21.10;51.90;;;;;;5037842;28;20108;-68
2024/01/04 00:41:08;;;;;;;0.98;0.50;;;21.10;51.90;;;;;;5038451;28;20125;-67
2024/01/04 00:43:36;;;;;;;1.23;0.60;;;21.10;51.90;;;;;;5038986;28;20043;-68
2024/01/04 00:46:03;;;;;;;0.88;0.55;;;21.10;51.90;;;;;;5035246;28;20522;-66
2024/01/04 00:48:29;;;;;;;1.75;0.70;;;21.10;51.90;;;;;;5035650;28;20044;-68
2024/01/04 00:50:54;;;;;;;1.30;0.60;;;21.10;51.90;;;;;;5038139;28;20029;-68
2024/01/04 00:53:20;;;;;;;2.25;0.70;;;21.00;51.80;;;;;;5037350;28;20064;-68
2024/01/04 00:55:45;;;;;;;0.75;0.40;;;21.00;51.80;;;;;;5037449;28;20036;-68
2024/01/04 00:58:11;;;;;;;0.82;0.50;;;21.00;51.80;;;;;;5035971;28;20507;-69
2024/01/04 01:00:37;;;;;;;0.60;0.50;;;21.00;51.80;;;;;;5037624;28;20155;-67
2024/01/04 01:03:02;;;;;;;1.20;0.50;;;21.00;51.80;;;;;;5034752;28;20025;-68
2024/01/04 01:05:28;;;;;;;0.85;0.40;;;20.90;51.70;;;;;;5038788;28;20053;-67
2024/01/04 01:07:53;;;;;;;0.85;0.50;;;21.00;51.80;;;;;;5036385;28;20477;-68
2024/01/04 01:10:19;;;;;;;0.80;0.50;;;21.00;51.80;;;;;;5037861;28;20096;-68
2024/01/04 01:12:45;;;;;;;0.60;0.50;;;21.00;51.80;;;;;;5038610;28;20029;-67
2024/01/04 01:15:10;;;;;;;1.30;0.63;;;20.90;51.70;;;;;;5038148;28;20901;-68
2024/01/04 01:17:39;;;;;;;1.48;0.52;;;20.90;51.70;;;;;;5035320;28;20025;-70
2024/01/04 01:20:06;;;;;;;1.40;0.75;;;20.90;51.70;;;;;;5037885;28;20447;-64
2024/01/04 01:22:31;;;;;;;0.60;0.47;;;20.90;51.70;;;;;;5034929;28;20017;-65
2024/01/04 01:24:57;;;;;;;0.60;0.40;;;20.90;51.70;;;;;;5037893;28;20033;-64
2024/01/04 01:27:23;;;;;;;0.43;0.38;;;20.90;51.70;;;;;;5036626;28;20079;-65
2024/01/04 01:29:48;;;;;;;0.63;0.40;;;20.90;51.70;;;;;;5035791;28;20040;-64
2024/01/04 01:32:14;;;;;;;1.45;0.57;;;20.90;51.70;;;;;;5034292;28;20063;-64
2024/01/04 01:34:42;;;;;;;0.63;0.47;;;20.80;51.70;;;;;;5036063;28;20033;-64
2024/01/04 01:37:09;;;;;;;1.10;0.55;;;20.80;51.70;;;;;;5037272;28;20461;-64
2024/01/04 01:39:35;;;;;;;0.45;0.40;;;20.80;51.70;;;;;;5038744;28;20029;-70
2024/01/04 01:42:00;;;;;;;1.00;0.50;;;20.80;51.70;;;;;;5039898;28;20025;-69
2024/01/04 01:44:26;;;;;;;0.73;0.50;;;20.80;51.80;;;;;;5041855;28;20104;-70
2024/01/04 01:46:52;;;;;;;0.77;0.50;;;20.70;51.70;;;;;;5037417;28;20485;-70
2024/01/04 01:49:17;;;;;;;0.57;0.50;;;20.70;51.70;;;;;;5038626;28;20044;-70
2024/01/04 01:51:43;;;;;;;1.35;0.65;;;20.70;51.80;;;;;;5040252;28;20075;-69
2024/01/04 01:54:09;;;;;;;0.47;0.38;;;20.70;51.70;;;;;;5039649;28;20084;-70
2024/01/04 01:56:35;;;;;;;0.75;0.50;;;20.70;51.70;;;;;;5041204;28;20037;-70
2024/01/04 01:59:01;;;;;;;1.48;0.70;;;20.70;51.70;;;;;;5040233;28;20513;-69
2024/01/04 02:01:28;;;;;;;1.02;0.55;;;20.70;51.80;;;;;;5038931;28;20028;-69
2024/01/04 02:03:54;;;;;;;1.25;0.70;;;20.70;51.70;;;;;;5037732;28;20096;-70
2024/01/04 02:06:20;;;;;;;0.45;0.43;;;20.70;51.70;;;;;;5041706;28;20029;-70
2024/01/04 02:08:48;;;;;;;0.50;0.40;;;20.70;51.80;;;;;;5041022;28;20022;-70
2024/01/04 02:11:16;;;;;;;0.43;0.40;;;20.70;51.80;;;;;;5042566;28;20025;-70
2024/01/04 02:13:41;;;;;;;0.68;0.50;;;20.70;51.70;;;;;;5041522;28;20112;-69
2024/01/04 02:16:07;;;;;;;0.82;0.40;;;20.70;51.80;;;;;;5040079;28;20109;-68
2024/01/04 02:18:33;;;;;;;0.85;0.50;;;20.70;51.80;;;;;;5039760;28;20036;-69
2024/01/04 02:20:59;;;;;;;0.60;0.30;;;20.60;51.70;;;;;;5038352;28;20028;-69
2024/01/04 02:23:24;;;;;;;0.50;0.40;;;20.60;51.70;;;;;;5040017;28;20025;-69
2024/01/04 02:25:50;;;;;;;0.57;0.47;;;20.60;51.70;;;;;;5039515;28;20170;-69
2024/01/04 02:28:16;;;;;;;0.43;0.30;;;20.60;51.70;;;;;;5040792;28;20033;-65
2024/01/04 02:30:41;;;;;;;0.32;0.30;;;20.60;51.70;;;;;;5041003;28;20081;-64
2024/01/04 02:33:07;;;;;;;0.30;0.30;;;20.60;51.80;;;;;;5038460;28;20067;-66
2024/01/04 02:35:32;;;;;;;0.38;0.35;;;20.60;51.80;;;;;;5043807;28;20053;-64
2024/01/04 02:37:58;;;;;;;0.30;0.30;;;20.60;51.80;;;;;;5039554;28;20504;-64
2024/01/04 02:40:24;;;;;;;0.57;0.40;;;20.60;51.80;;;;;;5040815;28;20100;-65
2024/01/04 02:42:49;;;;;;;0.73;0.40;;;20.60;52.30;;;;;;5041173;28;20021;-65
2024/01/04 02:45:15;;;;;;;0.60;0.50;;;20.50;51.70;;;;;;5039235;28;20021;-66
2024/01/04 02:47:42;;;;;;;0.55;0.30;;;20.50;51.70;;;;;;5035965;28;20025;-67
2024/01/04 02:50:09;;;;;;;0.60;0.40;;;20.50;51.70;;;;;;5022219;28;20417;-67
2024/01/04 02:52:34;;;;;;;0.43;0.40;;;20.50;51.70;;;;;;5037939;28;20087;-64
2024/01/04 02:55:00;;;;;;;0.50;0.40;;;20.50;51.70;;;;;;5040680;28;20025;-65
2024/01/04 02:57:25;;;;;;;0.32;0.32;;;20.50;51.70;;;;;;5039302;28;20065;-65
2024/01/04 02:59:51;;;;;;;0.52;0.40;;;20.50;51.80;;;;;;5038631;28;20025;-64
2024/01/04 03:02:16;;;;;;;1.02;0.65;;;20.50;51.70;;;;;;5037942;28;20021;-64
2024/01/04 03:04:43;;;;;;;0.50;0.40;;;20.40;51.70;;;;;;5038952;28;20139;-66
2024/01/04 03:07:08;;;;;;;0.63;0.43;;;20.50;51.80;;;;;;5039482;28;20032;-64
2024/01/04 03:09:34;;;;;;;0.70;0.40;;;20.40;51.70;;;;;;5038729;28;20037;-65
2024/01/04 03:12:00;;;;;;;0.77;0.60;;;20.40;51.70;;;;;;5038906;28;20064;-64
2024/01/04 03:14:25;;;;;;;0.45;0.40;;;20.40;51.80;;;;;;5037662;28;20489;-64
2024/01/04 03:16:51;;;;;;;0.98;0.40;;;20.40;51.70;;;;;;5038487;28;20084;-65
2024/01/04 03:19:17;;;;;;;0.40;0.40;;;20.40;51.80;;;;;;5037680;28;20475;-64
2024/01/04 03:21:42;;;;;;;0.43;0.40;;;20.40;51.70;;;;;;5036151;28;20016;-65
2024/01/04 03:24:08;;;;;;;0.65;0.38;;;20.40;51.70;;;;;;5039177;28;20025;-64
2024/01/04 03:26:34;;;;;;;0.60;0.40;;;20.40;51.80;;;;;;5038434;28;20036;-65
2024/01/04 03:28:59;;;;;;;0.52;0.40;;;20.40;51.80;;;;;;5039152;28;20096;-64
2024/01/04 03:31:25;;;;;;;0.45;0.40;;;20.30;51.70;;;;;;5038639;28;20029;-64
2024/01/04 03:33:51;;;;;;;0.50;0.35;;;20.30;51.70;;;;;;5036879;28;20025;-64
2024/01/04 03:36:17;;;;;;;0.70;0.40;;;20.40;51.90;;;;;;5037166;28;20107;-63
2024/01/04 03:38:43;;;;;;;0.50;0.35;;;20.40;51.90;;;;;;5038514;28;20024;-67
2024/01/04 03:41:08;;;;;;;0.88;0.40;;;20.30;51.80;;;;;;5038014;28;20120;-67
2024/01/04 03:43:34;;;;;;;0.60;0.40;;;20.30;51.80;;;;;;5038918;28;20025;-67
2024/01/04 03:46:00;;;;;;;0.35;0.32;;;20.30;51.80;;;;;;5038232;28;20392;-67
2024/01/04 03:48:25;;;;;;;0.50;0.40;;;20.30;51.80;;;;;;5035513;28;20033;-67
2024/01/04 03:50:51;;;;;;;0.30;0.30;;;20.30;51.80;;;;;;5039024;28;20440;-67
2024/01/04 03:53:17;;;;;;;0.30;0.30;;;20.30;51.80;;;;;;5037061;28;20079;-67
2024/01/04 03:55:42;;;;;;;0.55;0.40;;;20.30;51.80;;;;;;5039023;28;20053;-67
2024/01/04 03:58:08;;;;;;;0.22;0.22;;;20.30;51.90;;;;;;5038414;28;20075;-67
2024/01/04 04:00:33;;;;;;;0.38;0.30;;;20.30;51.90;;;;;;5037765;28;20509;-67
2024/01/04 04:02:59;;;;;;;0.35;0.32;;;20.30;51.80;;;;;;5038912;28;20120;-67
2024/01/04 04:05:24;;;;;;;0.40;0.40;;;20.30;51.90;;;;;;5039950;28;20443;-67
2024/01/04 04:07:50;;;;;;;0.30;0.30;;;20.30;51.90;;;;;;5037838;28;20052;-68
2024/01/04 04:10:16;;;;;;;0.30;0.30;;;20.30;51.80;;;;;;5037841;28;20098;-67
2024/01/04 04:12:41;;;;;;;0.50;0.30;;;20.20;51.80;;;;;;5039061;28;20048;-67
2024/01/04 04:15:08;;;;;;;0.50;0.32;;;20.20;51.80;;;;;;5037268;28;20493;-67
2024/01/04 04:17:35;;;;;;;0.50;0.40;;;20.30;51.80;;;;;;5038061;28;20137;-68
2024/01/04 04:20:00;;;;;;;0.70;0.40;;;20.20;51.80;;;;;;5035981;28;20478;-67
2024/01/04 04:22:26;;;;;;;0.52;0.50;;;20.20;51.80;;;;;;5037682;28;20032;-67
2024/01/04 04:24:51;;;;;;;0.50;0.40;;;20.20;51.80;;;;;;5052517;28;20492;-68
2024/01/04 04:27:17;;;;;;;0.60;0.30;;;20.20;51.80;;;;;;5036868;28;20039;-67
2024/01/04 04:29:43;;;;;;;0.47;0.40;;;20.20;51.80;;;;;;5039091;28;20020;-67
2024/01/04 04:32:09;;;;;;;0.32;0.25;;;20.20;51.80;;;;;;5038943;28;20082;-67
2024/01/04 04:34:35;;;;;;;0.40;0.40;;;20.20;51.80;;;;;;5035724;28;20604;-67
2024/01/04 04:37:01;;;;;;;0.65;0.38;;;20.20;51.80;;;;;;5036872;28;20021;-67
2024/01/04 04:39:27;;;;;;;0.45;0.40;;;20.20;51.90;;;;;;5037805;28;20387;-68
2024/01/04 04:41:53;;;;;;;0.30;0.30;;;20.20;51.80;;;;;;5037432;28;20033;-68
2024/01/04 04:44:18;;;;;;;0.30;0.30;;;20.20;51.80;;;;;;5036938;28;20049;-68
2024/01/04 04:46:44;;;;;;;0.40;0.30;;;20.10;51.80;;;;;;5036035;28;20067;-67
2024/01/04 04:49:10;;;;;;;0.55;0.40;;;20.20;51.90;;;;;;5035287;28;20091;-64
2024/01/04 04:51:35;;;;;;;1.00;0.40;;;20.10;51.80;;;;;;5040311;28;20031;-64
2024/01/04 04:54:03;;;;;;;0.32;0.32;;;20.10;51.80;;;;;;5038429;28;20060;-64
2024/01/04 04:56:28;;;;;;;0.40;0.40;;;20.10;51.80;;;;;;5037496;28;20064;-64
2024/01/04 04:58:54;;;;;;;0.35;0.32;;;20.10;51.80;;;;;;5037771;28;20072;-64
2024/01/04 05:01:19;;;;;;;0.60;0.57;;;20.10;51.80;;;;;;5037701;28;20028;-65
2024/01/04 05:03:45;;;;;;;0.40;0.40;;;20.10;51.80;;;;;;5034880;28;20037;-64
2024/01/04 05:06:11;;;;;;;0.22;0.22;;;20.10;51.80;;;;;;5036423;28;20452;-64
2024/01/04 05:08:39;;;;;;;0.52;0.30;;;20.10;51.80;;;;;;5038130;28;20029;-67
2024/01/04 05:11:06;;;;;;;0.30;0.30;;;20.10;51.80;;;;;;5038072;28;20037;-67
2024/01/04 05:13:32;;;;;;;0.30;0.30;;;20.10;51.70;;;;;;5039607;28;20040;-67
2024/01/04 05:15:58;;;;;;;0.30;0.30;;;20.10;51.70;;;;;;5041568;28;20123;-67
2024/01/04 05:18:24;;;;;;;0.98;0.50;;;20.10;51.70;;;;;;5037541;28;20029;-67
2024/01/04 05:20:49;;;;;;;0.30;0.30;;;20.10;51.70;;;;;;5041244;28;20396;-67
2024/01/04 05:23:15;;;;;;;0.50;0.50;;;20.10;51.70;;;;;;5041786;28;20036;-67
2024/01/04 05:25:41;;;;;;;0.47;0.43;;;20.10;51.70;;;;;;5040147;28;20028;-67
2024/01/04 05:28:06;;;;;;;0.55;0.30;;;20.00;51.70;;;;;;5039304;28;20502;-67
2024/01/04 05:30:32;;;;;;;0.30;0.30;;;20.00;51.60;;;;;;5053653;28;20021;-67
2024/01/04 05:32:57;;;;;;;0.55;0.32;;;20.00;51.60;;;;;;5037720;28;20037;-66
2024/01/04 05:35:23;;;;;;;0.30;0.30;;;20.00;51.60;;;;;;5036930;28;20537;-67
2024/01/04 05:37:48;;;;;;;0.20;0.20;;;20.00;51.60;;;;;;5038047;28;20037;-67
2024/01/04 05:40:14;;;;;;;0.40;0.40;;;20.00;51.60;;;;;;5040186;28;20032;-67
2024/01/04 05:42:40;;;;;;;0.47;0.40;;;20.00;51.60;;;;;;5042492;28;20103;-67
2024/01/04 05:45:07;;;;;;;0.32;0.30;;;20.00;51.60;;;;;;5041559;28;20030;-67
2024/01/04 05:47:33;;;;;;;0.20;0.20;;;20.00;51.60;;;;;;5042730;28;20056;-67
2024/01/04 05:49:58;;;;;;;0.38;0.25;;;20.00;51.60;;;;;;5038806;28;20044;-67
2024/01/04 05:52:24;;;;;;;0.30;0.30;;;20.00;51.60;;;;;;5040022;28;20091;-67
2024/01/04 05:54:49;;;;;;;0.43;0.30;;;19.90;51.50;;;;;;5038353;28;20028;-67
2024/01/04 05:57:17;;;;;;;0.52;0.32;;;19.90;51.50;;;;;;5041395;28;20036;-67
2024/01/04 05:59:43;;;;;;;0.30;0.20;;;19.90;51.60;;;;;;5040368;28;20018;-69
2024/01/04 06:02:08;;;;;;;0.20;0.20;;;19.90;51.60;;;;;;5041603;28;20031;-69
2024/01/04 06:04:34;;;;;;;0.50;0.40;;;19.90;51.50;;;;;;5041332;28;20039;-69
2024/01/04 06:07:00;;;;;;;0.20;0.20;;;19.90;51.60;;;;;;5039450;28;20103;-70
2024/01/04 06:09:26;;;;;;;0.50;0.40;;;19.90;51.60;;;;;;5039331;28;20024;-69
2024/01/04 06:11:52;;;;;;;0.30;0.30;;;19.90;51.60;;;;;;5040123;28;20437;-69
2024/01/04 06:14:18;;;;;;;0.32;0.28;;;19.90;51.60;;;;;;5041098;28;20029;-69
2024/01/04 06:16:44;;;;;;;0.30;0.30;;;19.90;51.60;;;;;;5040709;28;20028;-69
2024/01/04 06:19:09;;;;;;;0.30;0.30;;;19.90;51.60;;;;;;5036356;28;20032;-64
2024/01/04 06:21:35;;;;;;;0.40;0.30;;;19.90;51.60;;;;;;5040088;28;20155;-65
2024/01/04 06:24:01;;;;;;;0.60;0.40;;;19.80;51.50;;;;;;5043086;28;20024;-65
2024/01/04 06:26:26;;;;;;;0.30;0.30;;;19.90;51.60;;;;;;5038372;28;20029;-65
2024/01/04 06:28:52;;;;;;;0.30;0.30;;;19.90;51.60;;;;;;5040372;28;20116;-64
2024/01/04 06:31:18;;;;;;;0.40;0.40;;;19.80;51.50;;;;;;5040054;28;20448;-66
2024/01/04 06:33:43;;;;;;;0.30;0.30;;;19.90;51.60;;;;;;5038749;28;20039;-65
2024/01/04 06:36:09;;;;;;;0.30;0.30;;;19.80;51.60;;;;;;5041144;28;20063;-64
2024/01/04 06:38:35;;;;;;;0.47;0.40;;;19.80;51.60;;;;;;5040734;28;20450;-64
2024/01/04 06:41:03;;;;;;;0.30;0.30;;;19.80;51.60;;;;;;5035749;28;20469;-64
2024/01/04 06:43:30;;;;;;;0.20;0.20;;;19.80;51.60;;;;;;5038251;28;20056;-65
2024/01/04 06:45:56;;;;;;;0.25;0.25;;;19.80;51.60;;;;;;5039356;28;20029;-64
2024/01/04 06:48:22;;;;;;;0.20;0.20;;;19.80;51.60;;;;;;5039267;28;20029;-64
2024/01/04 06:50:47;;;;;;;0.52;0.30;;;19.80;51.60;;;;;;5037643;28;20116;-64
2024/01/04 06:53:16;;;;;;;0.30;0.30;;;19.80;51.60;;;;;;5037336;28;20049;-64
2024/01/04 06:55:42;;;;;;;0.20;0.20;;;19.80;51.60;;;;;;5039179;28;20025;-65
2024/01/04 06:58:09;;;;;;;0.20;0.20;;;19.80;51.60;;;;;;5040838;28;20021;-65
2024/01/04 07:00:35;;;;;;;0.38;0.30;;;19.80;51.60;;;;;;5039830;28;20033;-64
2024/01/04 07:03:01;;;;;;;0.50;0.30;;;19.80;51.60;;;;;;5054742;28;20588;-64
2024/01/04 07:05:27;;;;;;;0.30;0.30;;;19.80;51.60;;;;;;5035776;28;20021;-65
2024/01/04 07:07:52;;;;;;;0.40;0.25;;;19.70;51.60;;;;;;5037564;28;20102;-65
2024/01/04 07:10:18;;;;;;;0.35;0.35;;;19.80;51.60;;;;;;5038777;28;20040;-64
2024/01/04 07:12:43;;;;;;;0.32;0.32;;;19.70;51.60;;;;;;5037596;28;20068;-64
2024/01/04 07:15:12;;;;;;;0.45;0.30;;;19.70;51.70;;;;;;5036093;28;20033;-64
2024/01/04 07:17:38;;;;;;;0.32;0.32;;;19.70;51.70;;;;;;5041757;28;20064;-66
2024/01/04 07:20:05;;;;;;;0.28;0.28;;;19.70;51.60;;;;;;5037491;28;20493;-64
2024/01/04 07:22:30;;;;;;;0.25;0.20;;;19.70;51.70;;;;;;5039235;28;20528;-64
2024/01/04 07:24:56;;;;;;;0.20;0.20;;;19.70;51.60;;;;;;5038052;28;20049;-64
2024/01/04 07:27:22;;;;;;;0.25;0.25;;;19.70;51.70;;;;;;5041173;28;20029;-64
2024/01/04 07:29:48;;;;;;;0.47;0.38;;;19.70;51.70;;;;;;5038351;28;20071;-65
2024/01/04 07:32:18;;;;;;;0.25;0.20;;;19.70;51.70;;;;;;5036952;28;20025;-64
2024/01/04 07:34:44;;;;;;;0.38;0.38;;;19.70;51.70;;;;;;5036237;28;20112;-63
2024/01/04 07:37:10;;;;;;;0.30;0.30;;;19.70;51.70;;;;;;5037803;28;20025;-64
2024/01/04 07:39:36;;;;;;;0.30;0.30;;;19.70;51.60;;;;;;5035275;28;20080;-63
2024/01/04 07:42:02;;;;;;;0.17;0.17;;;19.70;51.70;;;;;;5037380;28;20125;-64
2024/01/04 07:44:27;;;;;;;0.30;0.30;;;19.70;51.70;;;;;;5038815;28;20033;-63
2024/01/04 07:46:53;;;;;;;0.30;0.30;;;19.70;51.70;;;;;;5037809;28;20028;-64
2024/01/04 07:49:18;;;;;;;0.20;0.20;;;19.70;51.70;;;;;;5034647;28;20034;-67
2024/01/04 07:51:44;;;;;;;0.20;0.20;;;19.70;51.70;;;;;;5036916;28;20492;-64
2024/01/04 07:54:10;;;;;;;0.30;0.30;;;19.70;51.70;;;;;;5039084;28;20040;-63
2024/01/04 07:56:36;;;;;;;0.20;0.20;;;19.60;51.70;;;;;;5039089;28;20126;-63
2024/01/04 07:59:02;;;;;;;0.40;0.30;;;19.60;51.70;;;;;;5038406;28;20036;-64
2024/01/04 08:01:28;;;;;;;1.00;0.40;;;19.60;51.70;;;;;;5036370;28;20481;-63
2024/01/04 08:03:53;;;;;;;0.30;0.30;;;19.60;51.70;;;;;;5036442;28;20422;-63
2024/01/04 08:06:19;;;;;;;0.45;0.30;;;19.60;51.70;;;;;;5035280;28;20030;-65
2024/01/04 08:08:45;;;;;;;0.28;0.28;;;19.60;51.70;;;;;;5038683;28;20484;-63
2024/01/04 08:11:10;;;;;;;0.38;0.38;;;19.60;51.70;;;;;;5035765;28;20034;-63
2024/01/04 08:13:36;;;;;;;0.20;0.20;;;19.60;51.70;;;;;;5038196;28;20103;-63
2024/01/04 08:16:02;;;;;;;0.40;0.38;;;19.60;51.70;;;;;;5035521;28;20473;-62
2024/01/04 08:18:28;;;;;;;0.28;0.20;;;19.60;51.70;;;;;;5038011;28;20028;-64
2024/01/04 08:20:54;;;;;;;0.47;0.30;;;19.60;51.70;;;;;;5035126;28;20111;-67
2024/01/04 08:23:19;;;;;;;0.30;0.28;;;19.60;51.70;;;;;;5039525;28;20033;-66
2024/01/04 08:25:45;;;;;;;0.10;0.10;;;19.60;51.80;;;;;;5038672;28;20100;-66
2024/01/04 08:28:12;;;;;;;0.20;0.20;;;19.60;52.60;;;;;;5039557;28;20036;-66
2024/01/04 08:30:38;;;;;;;0.30;0.30;;;19.60;52.40;;;;;;5037866;28;20025;-66
2024/01/04 08:33:03;;;;;;;0.40;0.30;;;19.70;53.20;;;;;;5037437;28;20627;-66
2024/01/04 08:35:29;;;;;;;0.43;0.30;;;19.70;53.70;;;;;;5028887;28;20022;-67
2024/01/04 08:37:55;;;;;;;0.30;0.30;;;19.80;53.80;;;;;;5036892;28;20489;-66
2024/01/04 08:40:20;;;;;;;0.57;0.40;;;20.00;53.80;;;;;;5034839;28;20044;-68
2024/01/04 08:42:46;;;;;;;0.20;0.20;;;20.10;53.50;;;;;;5036610;28;20893;-67
2024/01/04 08:45:12;;;;;;;0.50;0.40;;;20.30;53.40;;;;;;5034957;28;20021;-67
2024/01/04 08:47:38;;;;;;;0.68;0.40;;;20.40;53.60;;;;;;5041319;28;20024;-68
2024/01/04 08:50:05;;;;;;;0.25;0.25;;;20.50;53.50;;;;;;5038832;28;20045;-67
2024/01/04 08:52:31;;;;;;;0.20;0.20;;;20.70;53.40;;;;;;5041772;28;20515;-67
2024/01/04 08:54:57;;;;;;;0.30;0.30;;;20.80;53.10;;;;;;5042340;28;20508;-68
2024/01/04 08:57:23;;;;;;;0.28;0.28;;;20.90;53.20;;;;;;5040945;28;20489;-68
2024/01/04 08:59:48;;;;;;;0.90;0.30;;;21.00;52.90;;;;;;5041678;28;20026;-68
2024/01/04 09:02:14;;;;;;;0.20;0.20;;;21.00;52.70;;;;;;5040614;28;20267;-67
2024/01/04 09:04:40;;;;;;;0.47;0.30;;;21.00;52.70;;;;;;5040725;28;20029;-68
2024/01/04 09:07:08;;;;;;;0.30;0.30;;;21.20;52.60;;;;;;5037435;28;20042;-68
2024/01/04 09:09:34;;;;;;;0.30;0.30;;;21.60;52.00;;;;;;5039909;28;20457;-68
2024/01/04 09:12:00;;;;;;;0.30;0.30;;;21.90;51.20;;;;;;5037311;28;20037;-69
2024/01/04 09:14:25;;;;;;;0.35;0.30;;;22.20;50.50;;;;;;5041641;28;20029;-68
2024/01/04 09:16:51;;;;;;;0.30;0.30;;;22.50;50.00;;;;;;5041681;28;20029;-69
2024/01/04 09:19:19;;;;;;;0.25;0.22;;;22.80;49.60;;;;;;5042720;28;20151;-68
2024/01/04 09:21:52;;;;;;;0.20;0.20;;;23.00;49.30;;;;;;5036152;28;20477;-69
2024/01/04 09:24:18;;;;;;;9.02;0.50;;;23.10;49.00;;;;;;5040691;28;20028;-70
2024/01/04 09:26:45;;;;;;;1.58;0.45;;;23.00;48.60;;;;;;5041435;28;20524;-69
2024/01/04 09:29:18;;;;;;;0.88;0.50;;;22.70;48.40;;;;;;5041205;28;20033;-69
2024/01/04 09:31:43;;;;;;;1.00;0.50;;;22.50;47.70;;;;;;5038654;28;20750;-69
2024/01/04 09:34:09;;;;;;;1.38;0.55;;;22.30;46.80;;;;;;5040459;28;20044;-68
2024/01/04 09:36:35;;;;;;;1.30;0.70;;;22.20;45.90;;;;;;5038601;28;20087;-69
2024/01/04 09:39:04;;;;;;;1.77;0.60;;;22.10;45.60;;;;;;5040270;28;20359;-69
2024/01/04 09:41:32;;;;;;;1.45;0.60;;;21.90;45.50;;;;;;5039565;28;20425;-70
2024/01/04 09:44:07;;;;;;;1.58;0.60;;;21.90;46.20;;;;;;5040637;28;20123;-70
2024/01/04 09:46:35;;;;;;;0.80;0.50;;;21.80;46.20;;;;;;5041842;28;20029;-70
2024/01/04 09:49:01;;;;;;;1.10;0.50;;;21.70;46.20;;;;;;5040510;28;20491;-68
2024/01/04 09:51:28;;;;;;;1.17;0.60;;;21.80;46.60;;;;;;5037215;28;20563;-70
2024/01/04 09:53:55;;;;;;;1.48;0.60;;;21.70;46.80;;;;;;5038939;28;20448;-68
2024/01/04 09:56:22;;;;;;;1.23;0.60;;;21.70;46.90;;;;;;5039880;28;20095;-68
2024/01/04 09:58:48;;;;;;;1.65;0.77;;;21.60;46.90;;;;;;5040082;28;20029;-70
2024/01/04 10:01:24;;;;;;;1.52;0.68;;;21.70;47.20;;;;;;5040612;28;20018;-69
2024/01/04 10:03:52;;;;;;;1.20;0.52;;;21.60;47.20;;;;;;5039864;28;20021;-67
2024/01/04 10:06:28;;;;;;;1.48;0.50;;;21.60;47.60;;;;;;5039932;28;20117;-67
2024/01/04 10:09:00;;;;;;;2.22;0.70;;;21.50;47.60;;;;;;5039579;28;20036;-67
2024/01/04 10:11:34;;;;;;;0.90;0.50;;;21.50;47.70;;;;;;5040478;28;20425;-67
2024/01/04 10:14:01;;;;;;;0.63;0.40;;;21.50;47.90;;;;;;5055888;28;20034;-67
2024/01/04 10:16:27;;;;;;;0.65;0.40;;;21.50;48.10;;;;;;5040299;28;20034;-68
2024/01/04 10:18:56;;;;;;;0.43;0.40;;;21.50;48.20;;;;;;5035573;28;20489;-67
2024/01/04 10:21:22;;;;;;;1.02;0.52;;;21.50;48.40;;;;;;5039236;28;20096;-67
2024/01/04 10:23:57;;;;;;;1.00;0.50;;;21.40;48.70;;;;;;5040484;28;20121;-66
2024/01/04 10:26:23;;;;;;;1.25;0.50;;;21.40;48.60;;;;;;5035890;28;20453;-67
2024/01/04 10:28:55;;;;;;;0.55;0.40;;;21.40;48.70;;;;;;5040123;28;20026;-66
2024/01/04 10:31:20;;;;;;;0.45;0.45;;;21.40;48.80;;;;;;5041981;28;20036;-67
2024/01/04 10:33:46;;;;;;;0.90;0.40;;;21.40;48.80;;;;;;5041133;28;20033;-68
2024/01/04 10:36:13;;;;;;;0.68;0.50;;;21.40;48.90;;;;;;5038648;28;20446;-67
2024/01/04 10:38:38;;;;;;;1.00;0.40;;;21.40;49.00;;;;;;5039773;28;20040;-63
2024/01/04 10:41:04;;;;;;;0.77;0.40;;;21.40;49.10;;;;;;5040232;28;20026;-64
2024/01/04 10:43:36;;;;;;;0.40;0.32;;;21.40;49.20;;;;;;5038856;28;20415;-62
2024/01/04 10:46:05;;;;;;;0.85;0.40;;;21.40;49.30;;;;;;5039778;28;20904;-63
2024/01/04 10:48:31;;;;;;;1.35;0.50;;;21.40;49.40;;;;;;5040442;28;20459;-63
2024/01/04 10:51:02;;;;;;;1.02;0.30;;;21.30;49.50;;;;;;5038044;28;20580;-64
2024/01/04 10:53:33;;;;;;;0.43;0.40;;;21.30;49.50;;;;;;5037081;28;20033;-63
2024/01/04 10:55:59;;;;;;;0.70;0.40;;;21.30;49.60;;;;;;5038865;28;20083;-62
2024/01/04 10:58:25;;;;;;;0.70;0.50;;;21.30;49.70;;;;;;5037697;28;20476;-66
2024/01/04 11:00:52;;;;;;;0.95;0.43;;;21.30;49.80;;;;;;5039205;28;20033;-65
2024/01/04 11:03:19;;;;;;;0.80;0.40;;;21.30;49.90;;;;;;5039170;28;20484;-64
2024/01/04 11:05:47;;;;;;;0.98;0.50;;;21.30;50.00;;;;;;5054217;28;20489;-64
2024/01/04 11:08:14;;;;;;;0.68;0.40;;;21.30;50.00;;;;;;5036993;28;20112;-63
2024/01/04 11:10:41;;;;;;;1.05;0.52;;;21.30;50.10;;;;;;5038945;28;20017;-64
2024/01/04 11:13:07;;;;;;;0.55;0.40;;;21.30;50.10;;;;;;5039010;28;20618;-65
2024/01/04 11:15:33;;;;;;;0.38;0.30;;;21.30;50.20;;;;;;5038055;28;20022;-63
2024/01/04 11:18:31;;;;;;;0.70;0.45;;;21.30;50.30;;;;;;5038491;28;20035;-63
2024/01/04 11:21:14;;;;;;;0.45;0.40;;;21.30;50.30;;;;;;5034823;28;20068;-64
2024/01/04 11:24:06;;;;;;;0.95;0.50;;;21.30;50.40;;;;;;5036958;28;20093;-63
2024/01/04 11:26:56;;;;;;;1.27;0.55;;;21.30;50.40;;;;;;5037424;28;20108;-63
2024/01/04 11:29:23;;;;;;;0.73;0.47;;;21.30;50.50;;;;;;5036724;28;20037;-63
2024/01/04 11:31:49;;;;;;;1.45;0.40;;;21.30;50.50;;;;;;5037968;28;20501;-63
2024/01/04 11:34:15;;;;;;;0.93;0.50;;;21.30;50.50;;;;;;5038343;28;20033;-64
2024/01/04 11:36:41;;;;;;;1.33;0.50;;;21.30;50.60;;;;;;5036604;28;20075;-63
2024/01/04 11:39:07;;;;;;;0.60;0.40;;;21.30;50.60;;;;;;5037604;28;20037;-64
2024/01/04 11:41:37;;;;;;;0.50;0.40;;;21.30;50.60;;;;;;5035647;28;20036;-63
2024/01/04 11:44:14;;;;;;;1.00;0.65;;;21.30;50.70;;;;;;5038535;28;20032;-64
2024/01/04 11:46:41;;;;;;;0.40;0.40;;;21.30;50.80;;;;;;5035857;28;20399;-63
2024/01/04 11:49:07;;;;;;;0.47;0.30;;;21.30;50.70;;;;;;5038392;28;20112;-63
2024/01/04 11:51:38;;;;;;;1.08;0.30;;;21.30;50.80;;;;;;5034943;28;20104;-62
2024/01/04 11:54:05;;;;;;;0.50;0.40;;;21.30;50.80;;;;;;5038458;28;20037;-62
2024/01/04 11:56:31;;;;;;;0.68;0.50;;;21.30;50.80;;;;;;5039453;28;20029;-62
2024/01/04 11:59:07;;;;;;;0.75;0.40;;;21.30;50.90;;;;;;5039100;28;20555;-63
2024/01/04 12:01:35;;;;;;;0.85;0.47;;;21.30;50.90;;;;;;5037914;28;20028;-64
2024/01/04 12:04:07;;;;;;;1.02;0.43;;;21.30;50.90;;;;;;5038413;28;20026;-63
2024/01/04 12:06:34;;;;;;;0.65;0.40;;;21.30;51.00;;;;;;5036160;28;20087;-63
2024/01/04 12:09:02;;;;;;;0.80;0.40;;;21.30;51.00;;;;;;5038881;28;20029;-64
2024/01/04 12:11:28;;;;;;;0.60;0.50;;;21.30;50.90;;;;;;5038502;28;20045;-63
2024/01/04 12:13:54;;;;;;;0.47;0.40;;;21.30;50.90;;;;;;5037368;28;20029;-64
2024/01/04 12:16:19;;;;;;;0.30;0.30;;;21.30;51.00;;;;;;5034647;28;20041;-63
2024/01/04 12:18:45;;;;;;;0.85;0.50;;;21.30;51.00;;;;;;5035407;28;20397;-64
2024/01/04 12:21:12;;;;;;;0.73;0.32;;;21.30;51.00;;;;;;5040276;28;20030;-63
2024/01/04 12:23:39;;;;;;;0.52;0.35;;;21.30;51.10;;;;;;5034878;28;20014;-64
2024/01/04 12:26:06;;;;;;;0.30;0.30;;;21.30;51.10;;;;;;5036223;28;20044;-62
2024/01/04 12:28:32;;;;;;;0.32;0.30;;;21.30;51.10;;;;;;5038042;28;20029;-63
2024/01/04 12:30:59;;;;;;;0.85;0.40;;;21.30;51.20;;;;;;5038714;28;20033;-62
2024/01/04 12:33:31;;;;;;;0.88;0.43;;;21.30;51.20;;;;;;5036998;28;20025;-63
2024/01/04 12:36:00;;;;;;;0.63;0.40;;;21.30;51.20;;;;;;5037717;28;20029;-63
2024/01/04 12:38:26;;;;;;;0.60;0.45;;;21.30;51.30;;;;;;5033645;28;20552;-63
2024/01/04 12:40:52;;;;;;;0.43;0.35;;;21.30;51.30;;;;;;5038393;28;20105;-63
2024/01/04 12:43:22;;;;;;;0.65;0.40;;;21.30;51.30;;;;;;5037280;28;20386;-63
2024/01/04 12:46:08;;;;;;;0.77;0.40;;;21.30;51.40;;;;;;5040236;28;20013;-63